createdAt,value
2019-05-01T00:01:30.360Z,19.82
2019-05-01T00:02:30.240Z,19.79
2019-05-01T00:03:30.579Z,19.80
2019-05-01T00:04:30.492Z,19.79
2019-05-01T00:06:30.419Z,19.72
2019-05-01T00:07:30.395Z,19.79
2019-05-01T00:08:30.479Z,19.79
2019-05-01T00:09:30.507Z,19.68
2019-05-01T00:10:30.787Z,19.70
2019-05-01T00:11:30.878Z,19.75
2019-05-01T00:12:30.628Z,19.65
2019-05-01T00:13:30.585Z,19.65
2019-05-01T00:14:30.667Z,19.70
2019-05-01T00:15:30.693Z,19.68
2019-05-01T00:16:30.838Z,19.72
2019-05-01T00:17:31.091Z,19.68
2019-05-01T00:18:30.794Z,19.75
2019-05-01T00:19:30.834Z,19.62
2019-05-01T00:20:30.861Z,19.67
2019-05-01T00:21:30.826Z,19.62
2019-05-01T00:22:30.927Z,19.68
2019-05-01T00:23:30.890Z,19.58
2019-05-01T00:24:31.376Z,19.57
2019-05-01T00:25:31.005Z,19.52
2019-05-01T00:26:30.983Z,19.53
2019-05-01T00:27:31.066Z,19.50
2019-05-01T00:28:31.096Z,19.50
2019-05-01T00:29:31.125Z,19.55
2019-05-01T00:30:31.157Z,19.52
2019-05-01T00:31:31.442Z,19.53
2019-05-01T00:32:31.284Z,19.49
2019-05-01T00:33:31.253Z,19.52
2019-05-01T00:34:31.233Z,19.46
2019-05-01T00:35:31.318Z,19.43
2019-05-01T00:36:31.298Z,19.47
2019-05-01T00:37:31.376Z,19.46
2019-05-01T00:38:31.720Z,19.35
2019-05-01T00:39:31.389Z,19.43
2019-05-01T00:40:31.603Z,19.39
2019-05-01T00:41:31.446Z,19.35
2019-05-01T00:42:31.529Z,19.39
2019-05-01T00:43:31.516Z,19.32
2019-05-01T00:44:31.902Z,19.34
2019-05-01T00:45:31.733Z,19.38
2019-05-01T00:46:31.612Z,19.21
2019-05-01T00:47:31.696Z,19.30
2019-05-01T00:48:31.718Z,19.31
2019-05-01T00:49:31.747Z,19.28
2019-05-01T00:50:32.028Z,19.25
2019-05-01T00:51:31.897Z,19.20
2019-05-01T00:53:31.875Z,19.17
2019-05-01T00:54:31.846Z,19.16
2019-05-01T00:55:31.890Z,19.20
2019-05-01T00:56:32.263Z,19.17
2019-05-01T00:57:32.003Z,19.20
2019-05-01T01:03:32.176Z,19.15
2019-05-01T01:04:32.530Z,19.17
2019-05-01T01:06:32.286Z,19.30
2019-05-01T01:07:32.404Z,19.25
2019-05-01T01:08:32.333Z,19.24
2019-05-01T01:09:32.362Z,19.27
2019-05-01T01:10:32.699Z,19.30
2019-05-01T01:11:32.486Z,19.24
2019-05-01T01:12:32.468Z,19.27
2019-05-01T01:13:32.478Z,19.30
2019-05-01T01:14:32.512Z,19.24
2019-05-01T01:15:32.648Z,19.28
2019-05-01T01:16:32.869Z,19.20
2019-05-01T01:17:32.906Z,19.30
2019-05-01T01:18:32.663Z,19.23
2019-05-01T01:19:32.669Z,19.17
2019-05-01T01:20:32.697Z,19.16
2019-05-01T01:21:32.803Z,19.17
2019-05-01T01:22:32.761Z,19.21
2019-05-01T01:23:33.202Z,19.17
2019-05-01T01:24:33.152Z,19.20
2019-05-01T01:25:32.842Z,19.17
2019-05-01T01:26:32.849Z,19.17
2019-05-01T01:27:32.926Z,19.16
2019-05-01T01:29:32.972Z,19.01
2019-05-01T01:30:32.957Z,19.10
2019-05-01T01:31:33.446Z,19.09
2019-05-01T01:33:33.156Z,19.06
2019-05-01T01:34:33.156Z,19.09
2019-05-01T01:35:33.109Z,19.10
2019-05-01T01:36:33.131Z,19.12
2019-05-01T01:37:33.173Z,19.09
2019-05-01T01:38:33.264Z,19.12
2019-05-01T01:39:33.340Z,19.01
2019-05-01T01:40:33.689Z,19.10
2019-05-01T01:41:33.344Z,19.07
2019-05-01T01:42:33.326Z,19.06
2019-05-01T01:45:33.459Z,19.12
2019-05-01T01:46:33.794Z,19.07
2019-05-01T01:47:33.472Z,19.09
2019-05-01T01:48:33.554Z,19.07
2019-05-01T01:49:33.529Z,19.12
2019-05-01T01:50:33.619Z,19.10
2019-05-01T01:51:33.793Z,18.93
2019-05-01T01:52:33.775Z,18.97
2019-05-01T01:53:34.008Z,18.94
2019-05-01T01:54:33.755Z,18.96
2019-05-01T01:55:33.816Z,19.07
2019-05-01T01:56:33.799Z,19.02
2019-05-01T01:57:33.772Z,18.99
2019-05-01T01:58:33.812Z,19.10
2019-05-01T01:59:33.850Z,18.99
2019-05-01T02:00:34.218Z,18.99
2019-05-01T02:01:33.987Z,19.02
2019-05-01T02:02:33.936Z,19.05
2019-05-01T02:03:34.014Z,19.06
2019-05-01T02:04:33.983Z,19.05
2019-05-01T02:05:34.087Z,19.05
2019-05-01T02:07:34.131Z,19.05
2019-05-01T02:08:34.409Z,19.06
2019-05-01T02:09:34.138Z,19.06
2019-05-01T02:10:42.660Z,19.02
2019-05-01T02:11:34.200Z,18.97
2019-05-01T02:12:34.233Z,18.93
2019-05-01T02:13:34.312Z,18.94
2019-05-01T02:14:34.292Z,18.96
2019-05-01T02:15:34.674Z,19.06
2019-05-01T02:16:34.415Z,18.97
2019-05-01T02:17:34.538Z,19.05
2019-05-01T02:19:34.498Z,18.96
2019-05-01T02:20:34.526Z,18.91
2019-05-01T02:21:34.509Z,18.97
2019-05-01T02:22:34.891Z,18.96
2019-05-01T02:23:34.569Z,18.94
2019-05-01T02:25:34.735Z,18.99
2019-05-01T02:26:34.668Z,18.97
2019-05-01T02:27:34.785Z,19.05
2019-05-01T02:28:35.073Z,18.96
2019-05-01T02:29:35.060Z,18.96
2019-05-01T02:30:34.783Z,18.93
2019-05-01T02:31:34.815Z,18.94
2019-05-01T02:32:34.994Z,18.96
2019-05-01T02:33:34.973Z,18.97
2019-05-01T02:34:34.975Z,18.84
2019-05-01T02:35:35.023Z,18.93
2019-05-01T02:36:35.412Z,18.90
2019-05-01T02:37:35.086Z,18.90
2019-05-01T02:38:35.141Z,18.89
2019-05-01T02:39:35.141Z,18.99
2019-05-01T02:40:35.233Z,18.86
2019-05-01T02:42:35.238Z,18.99
2019-05-01T02:43:35.611Z,18.86
2019-05-01T02:44:35.281Z,18.86
2019-05-01T02:45:35.450Z,18.93
2019-05-01T02:46:35.338Z,18.87
2019-05-01T02:47:35.766Z,18.99
2019-05-01T02:48:35.415Z,19.01
2019-05-01T02:49:35.504Z,18.91
2019-05-01T02:50:35.802Z,19.05
2019-05-01T02:51:35.513Z,19.05
2019-05-01T02:52:35.555Z,18.94
2019-05-01T02:54:35.663Z,18.99
2019-05-01T02:55:35.641Z,18.99
2019-05-01T02:56:35.644Z,18.93
2019-05-01T02:57:35.974Z,18.93
2019-05-01T02:58:35.685Z,18.96
2019-05-01T02:59:35.737Z,18.94
2019-05-01T03:00:35.755Z,18.91
2019-05-01T03:01:46.647Z,18.91
2019-05-01T03:02:35.809Z,18.87
2019-05-01T03:03:35.849Z,18.90
2019-05-01T03:04:36.207Z,18.90
2019-05-01T03:05:35.913Z,18.90
2019-05-01T03:06:35.942Z,18.99
2019-05-01T03:08:35.998Z,18.94
2019-05-01T03:09:36.043Z,18.89
2019-05-01T03:10:36.164Z,18.91
2019-05-01T03:11:36.406Z,18.93
2019-05-01T03:12:36.115Z,18.89
2019-05-01T03:13:36.146Z,18.90
2019-05-01T03:14:36.186Z,18.86
2019-05-01T03:15:36.222Z,18.79
2019-05-01T03:16:36.234Z,18.91
2019-05-01T03:17:36.272Z,18.87
2019-05-01T03:18:36.630Z,18.93
2019-05-01T03:19:36.365Z,18.93
2019-05-01T03:20:36.432Z,18.83
2019-05-01T03:21:36.399Z,18.93
2019-05-01T03:23:36.452Z,18.90
2019-05-01T03:24:36.430Z,18.79
2019-05-01T03:25:36.760Z,18.83
2019-05-01T03:26:36.550Z,18.89
2019-05-01T03:27:36.639Z,18.83
2019-05-01T03:28:36.619Z,18.89
2019-05-01T03:29:36.645Z,18.87
2019-05-01T03:30:36.643Z,18.86
2019-05-01T03:31:36.981Z,18.83
2019-05-01T03:32:36.676Z,18.76
2019-05-01T03:33:36.742Z,18.86
2019-05-01T03:34:36.773Z,18.84
2019-05-01T03:35:36.813Z,18.78
2019-05-01T03:36:36.849Z,18.83
2019-05-01T03:37:37.198Z,18.87
2019-05-01T03:38:36.912Z,18.82
2019-05-01T03:40:37.003Z,18.86
2019-05-01T03:42:51.818Z,18.82
2019-05-01T03:43:51.590Z,18.83
2019-05-01T03:44:51.613Z,18.78
2019-05-01T03:45:51.641Z,18.78
2019-05-01T03:46:51.629Z,18.79
2019-05-01T03:47:51.657Z,18.84
2019-05-01T03:48:52.031Z,18.82
2019-05-01T03:49:51.760Z,18.78
2019-05-01T03:50:51.761Z,18.82
2019-05-01T03:51:51.773Z,18.76
2019-05-01T03:52:51.803Z,18.83
2019-05-01T03:53:51.900Z,18.82
2019-05-01T03:54:52.219Z,18.78
2019-05-01T03:55:51.932Z,18.74
2019-05-01T03:56:51.930Z,18.74
2019-05-01T03:57:51.951Z,18.76
2019-05-01T03:58:52.042Z,18.78
2019-05-01T03:59:52.016Z,18.75
2019-05-01T04:00:52.397Z,18.76
2019-05-01T04:01:52.120Z,18.76
2019-05-01T04:02:52.150Z,18.76
2019-05-01T04:03:52.193Z,18.84
2019-05-01T04:04:52.216Z,18.74
2019-05-01T04:05:52.247Z,18.74
2019-05-01T04:06:52.237Z,18.76
2019-05-01T04:07:52.601Z,18.78
2019-05-01T04:08:52.286Z,18.74
2019-05-01T04:09:52.374Z,18.76
2019-05-01T04:10:52.346Z,18.76
2019-05-01T04:11:52.379Z,18.75
2019-05-01T04:12:52.456Z,18.76
2019-05-01T04:13:52.432Z,18.65
2019-05-01T04:14:52.514Z,18.75
2019-05-01T04:16:52.572Z,18.69
2019-05-01T04:17:52.560Z,18.69
2019-05-01T04:18:52.635Z,18.71
2019-05-01T04:19:52.613Z,18.75
2019-05-01T04:20:53.000Z,18.72
2019-05-01T04:21:52.672Z,18.72
2019-05-01T04:22:52.750Z,18.62
2019-05-01T04:23:52.794Z,18.64
2019-05-01T04:24:52.819Z,18.68
2019-05-01T04:25:52.802Z,18.60
2019-05-01T04:26:52.884Z,18.60
2019-05-01T04:27:53.204Z,18.62
2019-05-01T04:28:52.993Z,18.57
2019-05-01T04:29:53.013Z,18.51
2019-05-01T04:30:53.314Z,18.64
2019-05-01T04:31:52.978Z,18.54
2019-05-01T04:32:53.407Z,18.47
2019-05-01T04:33:53.093Z,18.50
2019-05-01T04:34:53.441Z,18.50
2019-05-01T04:35:53.099Z,18.53
2019-05-01T04:36:53.178Z,18.46
2019-05-01T04:37:53.229Z,18.57
2019-05-01T04:38:53.243Z,18.42
2019-05-01T04:39:53.224Z,18.46
2019-05-01T04:40:53.295Z,18.39
2019-05-01T04:41:53.626Z,18.47
2019-05-01T04:42:53.313Z,18.36
2019-05-01T04:43:53.339Z,18.41
2019-05-01T04:44:53.388Z,18.47
2019-05-01T04:45:53.398Z,18.47
2019-05-01T04:46:53.797Z,18.42
2019-05-01T04:47:53.463Z,18.39
2019-05-01T04:48:53.858Z,18.38
2019-05-01T04:49:53.587Z,18.44
2019-05-01T04:50:53.630Z,18.34
2019-05-01T04:51:53.652Z,18.42
2019-05-01T04:52:53.669Z,18.41
2019-05-01T04:53:53.649Z,18.38
2019-05-01T04:54:54.067Z,18.44
2019-05-01T04:55:53.693Z,18.42
2019-05-01T04:56:53.780Z,18.42
2019-05-01T04:57:53.810Z,18.31
2019-05-01T04:58:53.795Z,18.29
2019-05-01T04:59:53.868Z,18.34
2019-05-01T05:00:54.199Z,18.41
2019-05-01T05:01:56.735Z,18.28
2019-05-01T05:03:04.064Z,18.36
2019-05-01T05:03:53.938Z,18.32
2019-05-01T05:04:53.966Z,18.35
2019-05-01T05:05:54.041Z,18.32
2019-05-01T05:06:54.331Z,18.31
2019-05-01T05:07:54.079Z,18.32
2019-05-01T05:08:54.158Z,18.32
2019-05-01T05:09:54.166Z,18.31
2019-05-01T05:10:54.164Z,18.34
2019-05-01T05:11:54.221Z,18.31
2019-05-01T05:12:54.214Z,18.35
2019-05-01T05:13:54.544Z,18.35
2019-05-01T05:14:54.326Z,18.31
2019-05-01T05:15:54.341Z,18.34
2019-05-01T05:16:54.327Z,18.26
2019-05-01T05:17:54.355Z,18.36
2019-05-01T05:18:54.434Z,18.38
2019-05-01T05:19:54.411Z,18.32
2019-05-01T05:20:54.797Z,18.35
2019-05-01T05:21:54.519Z,18.34
2019-05-01T05:22:54.549Z,18.31
2019-05-01T05:23:54.535Z,18.29
2019-05-01T05:24:54.616Z,18.32
2019-05-01T05:25:54.591Z,18.31
2019-05-01T05:26:54.630Z,18.31
2019-05-01T05:27:55.054Z,18.26
2019-05-01T05:28:54.743Z,18.25
2019-05-01T05:29:54.778Z,18.31
2019-05-01T05:30:54.738Z,18.16
2019-05-01T05:31:54.780Z,18.21
2019-05-01T05:32:54.855Z,18.13
2019-05-01T05:33:54.884Z,18.17
2019-05-01T05:34:55.219Z,18.11
2019-05-01T05:35:54.898Z,18.13
2019-05-01T05:36:54.968Z,18.16
2019-05-01T05:37:55.007Z,18.20
2019-05-01T05:38:55.030Z,18.16
2019-05-01T05:39:55.074Z,18.17
2019-05-01T05:40:55.147Z,18.26
2019-05-01T05:41:55.424Z,18.21
2019-05-01T05:42:55.100Z,18.14
2019-05-01T05:43:55.153Z,18.14
2019-05-01T05:44:55.230Z,18.23
2019-05-01T05:45:55.249Z,18.17
2019-05-01T05:46:55.228Z,18.19
2019-05-01T05:47:55.248Z,18.17
2019-05-01T05:48:55.645Z,18.14
2019-05-01T05:49:55.342Z,18.20
2019-05-01T05:50:55.393Z,18.26
2019-05-01T05:51:55.379Z,18.21
2019-05-01T05:52:55.453Z,18.28
2019-05-01T05:53:55.478Z,18.21
2019-05-01T05:54:55.460Z,18.26
2019-05-01T05:55:55.839Z,18.28
2019-05-01T05:56:55.539Z,18.31
2019-05-01T05:57:55.614Z,18.34
2019-05-01T05:58:55.629Z,18.31
2019-05-01T05:59:55.658Z,18.38
2019-05-01T06:00:55.642Z,18.32
2019-05-01T06:01:55.677Z,18.42
2019-05-01T06:02:56.058Z,18.32
2019-05-01T06:03:55.732Z,18.39
2019-05-01T06:04:55.863Z,18.47
2019-05-01T06:05:55.847Z,18.41
2019-05-01T06:06:55.820Z,18.42
2019-05-01T06:07:55.849Z,18.46
2019-05-01T06:08:55.938Z,18.47
2019-05-01T06:09:56.262Z,18.44
2019-05-01T06:10:58.474Z,18.47
2019-05-01T06:11:55.972Z,18.49
2019-05-01T06:12:55.995Z,18.42
2019-05-01T06:13:56.997Z,18.41
2019-05-01T06:14:56.113Z,18.51
2019-05-01T06:15:56.085Z,18.41
2019-05-01T06:16:56.475Z,18.53
2019-05-01T06:17:59.034Z,18.51
2019-05-01T06:18:56.234Z,18.59
2019-05-01T06:19:56.217Z,18.60
2019-05-01T06:20:57.057Z,18.59
2019-05-01T06:21:56.273Z,18.60
2019-05-01T06:22:56.297Z,18.60
2019-05-01T06:23:57.741Z,18.53
2019-05-01T06:24:56.364Z,18.56
2019-05-01T06:26:00.295Z,18.49
2019-05-01T06:27:56.451Z,18.51
2019-05-01T06:29:00.653Z,18.51
2019-05-01T06:29:56.509Z,18.44
2019-05-01T06:30:56.888Z,18.46
2019-05-01T06:31:58.921Z,18.51
2019-05-01T06:32:56.650Z,18.60
2019-05-01T06:33:56.633Z,18.50
2019-05-01T06:34:58.539Z,18.50
2019-05-01T06:35:56.746Z,18.44
2019-05-01T06:36:56.720Z,18.53
2019-05-01T06:38:00.727Z,18.44
2019-05-01T06:38:56.797Z,18.46
2019-05-01T06:39:56.816Z,18.44
2019-05-01T06:40:58.055Z,18.54
2019-05-01T06:41:56.925Z,18.53
2019-05-01T06:42:56.898Z,18.46
2019-05-01T06:44:02.411Z,18.49
2019-05-01T06:44:57.029Z,18.62
2019-05-01T06:45:59.854Z,18.56
2019-05-01T06:46:58.285Z,18.56
2019-05-01T06:47:57.069Z,18.56
2019-05-01T06:48:57.106Z,18.65
2019-05-01T06:50:01.261Z,18.60
2019-05-01T06:50:57.507Z,18.74
2019-05-01T06:51:57.237Z,18.62
2019-05-01T06:52:59.740Z,18.68
2019-05-01T06:53:57.290Z,18.66
2019-05-01T06:54:57.268Z,18.69
2019-05-01T06:55:57.593Z,18.68
2019-05-01T06:56:57.413Z,18.65
2019-05-01T06:57:57.355Z,18.66
2019-05-01T06:58:57.516Z,18.66
2019-05-01T06:59:57.413Z,18.64
2019-05-01T07:00:57.475Z,18.65
2019-05-01T07:01:58.309Z,18.71
2019-05-01T07:02:57.853Z,18.71
2019-05-01T07:04:03.371Z,18.62
2019-05-01T07:04:57.564Z,18.68
2019-05-01T07:05:57.616Z,18.66
2019-05-01T07:06:57.650Z,18.54
2019-05-01T07:07:57.672Z,18.65
2019-05-01T07:08:57.701Z,18.59
2019-05-01T07:09:58.075Z,18.59
2019-05-01T07:10:57.800Z,18.60
2019-05-01T07:11:57.783Z,18.62
2019-05-01T07:12:59.844Z,18.57
2019-05-01T07:13:57.890Z,18.59
2019-05-01T07:14:57.870Z,18.64
2019-05-01T07:16:00.379Z,18.57
2019-05-01T07:16:58.021Z,18.56
2019-05-01T07:17:58.036Z,18.51
2019-05-01T07:19:05.406Z,18.59
2019-05-01T07:19:58.075Z,18.54
2019-05-01T07:20:58.114Z,18.62
2019-05-01T07:22:01.867Z,18.53
2019-05-01T07:22:58.424Z,18.49
2019-05-01T07:23:58.192Z,18.51
2019-05-01T07:24:58.891Z,18.51
2019-05-01T07:25:58.268Z,18.53
2019-05-01T07:26:59.843Z,18.62
2019-05-01T07:27:58.789Z,18.60
2019-05-01T07:28:58.449Z,18.57
2019-05-01T07:29:58.675Z,18.56
2019-05-01T07:30:58.412Z,18.51
2019-05-01T07:32:01.682Z,18.56
2019-05-01T07:32:58.472Z,18.57
2019-05-01T07:33:58.502Z,18.69
2019-05-01T07:35:02.177Z,18.65
2019-05-01T07:35:58.584Z,18.65
2019-05-01T07:36:58.606Z,18.68
2019-05-01T07:38:02.232Z,18.76
2019-05-01T07:38:58.602Z,18.74
2019-05-01T07:39:58.631Z,18.78
2019-05-01T07:41:02.879Z,18.78
2019-05-01T07:41:58.740Z,18.78
2019-05-01T07:42:59.065Z,18.83
2019-05-01T07:43:59.620Z,18.83
2019-05-01T07:44:58.833Z,18.75
2019-05-01T07:45:58.815Z,18.75
2019-05-01T07:46:58.887Z,18.78
2019-05-01T07:48:01.102Z,18.79
2019-05-01T07:48:59.252Z,18.75
2019-05-01T07:49:58.985Z,18.86
2019-05-01T07:51:01.852Z,18.89
2019-05-01T07:52:01.682Z,18.89
2019-05-01T07:52:59.070Z,18.90
2019-05-01T07:54:03.435Z,18.82
2019-05-01T07:55:59.465Z,18.91
2019-05-01T07:57:03.236Z,18.96
2019-05-01T07:57:59.224Z,18.91
2019-05-01T08:00:59.353Z,18.94
2019-05-01T08:01:59.299Z,18.93
2019-05-01T08:03:02.579Z,18.87
2019-05-01T08:03:59.352Z,18.90
2019-05-01T08:04:59.400Z,18.96
2019-05-01T08:05:59.496Z,18.94
2019-05-01T08:06:59.457Z,18.86
2019-05-01T08:08:02.897Z,18.89
2019-05-01T08:08:59.559Z,18.89
2019-05-01T08:09:59.600Z,18.86
2019-05-01T08:11:59.658Z,18.89
2019-05-01T08:13:00.514Z,18.94
2019-05-01T08:14:07.279Z,18.87
2019-05-01T08:14:59.996Z,18.84
2019-05-01T08:16:02.104Z,18.86
2019-05-01T08:17:59.947Z,18.78
2019-05-01T08:19:04.092Z,18.83
2019-05-01T08:19:59.848Z,19.02
2019-05-01T08:20:59.949Z,18.96
2019-05-01T08:22:01.761Z,18.93
2019-05-01T08:22:59.944Z,18.89
2019-05-01T08:23:59.971Z,18.90
2019-05-01T08:25:00.079Z,18.89
2019-05-01T08:26:04.058Z,18.96
2019-05-01T08:27:00.119Z,18.94
2019-05-01T08:28:00.162Z,19.01
2019-05-01T08:29:03.009Z,18.91
2019-05-01T08:30:00.246Z,18.93
2019-05-01T08:31:00.180Z,18.96
2019-05-01T08:32:03.424Z,18.99
2019-05-01T08:33:00.313Z,19.02
2019-05-01T08:34:00.323Z,18.96
2019-05-01T08:35:02.434Z,19.01
2019-05-01T08:36:00.375Z,19.05
2019-05-01T08:37:00.467Z,19.07
2019-05-01T08:39:04.662Z,19.12
2019-05-01T08:40:00.519Z,19.10
2019-05-01T08:41:00.548Z,19.17
2019-05-01T08:43:00.935Z,19.31
2019-05-01T08:44:00.646Z,19.30
2019-05-01T08:45:05.349Z,19.34
2019-05-01T08:46:00.662Z,19.39
2019-05-01T08:47:00.746Z,19.35
2019-05-01T08:48:01.526Z,19.38
2019-05-01T08:49:00.782Z,19.40
2019-05-01T08:50:00.813Z,19.47
2019-05-01T08:51:00.824Z,19.43
2019-05-01T08:52:04.752Z,19.49
2019-05-01T08:53:01.028Z,19.50
2019-05-01T08:54:00.939Z,19.49
2019-05-01T08:55:04.197Z,19.57
2019-05-01T08:56:01.324Z,19.55
2019-05-01T08:57:00.990Z,19.49
2019-05-01T08:58:01.180Z,19.52
2019-05-01T08:59:01.047Z,19.57
2019-05-01T09:00:01.664Z,19.64
2019-05-01T09:01:01.166Z,19.65
2019-05-01T09:02:09.349Z,19.71
2019-05-01T09:03:08.162Z,19.72
2019-05-01T09:04:12.272Z,19.79
2019-05-01T09:05:02.742Z,19.78
2019-05-01T09:06:01.337Z,19.86
2019-05-01T09:07:01.294Z,19.78
2019-05-01T09:08:01.688Z,19.78
2019-05-01T09:09:02.965Z,19.70
2019-05-01T09:11:02.276Z,19.79
2019-05-01T09:12:01.465Z,19.82
2019-05-01T09:13:01.696Z,19.90
2019-05-01T09:14:01.581Z,19.80
2019-05-01T09:16:02.355Z,19.86
2019-05-01T09:17:01.688Z,19.89
2019-05-01T09:18:01.767Z,19.90
2019-05-01T09:19:01.812Z,19.92
2019-05-01T09:20:01.872Z,19.94
2019-05-01T09:22:02.006Z,19.89
2019-05-01T09:23:01.982Z,19.89
2019-05-01T09:24:01.919Z,19.89
2019-05-01T09:25:02.052Z,19.97
2019-05-01T09:26:06.222Z,19.94
2019-05-01T09:27:01.922Z,19.86
2019-05-01T09:28:04.112Z,19.97
2019-05-01T09:29:02.033Z,19.97
2019-05-01T09:30:04.472Z,19.92
2019-05-01T09:31:03.333Z,19.95
2019-05-01T09:32:05.031Z,19.85
2019-05-01T09:33:02.552Z,19.92
2019-05-01T09:34:02.136Z,19.82
2019-05-01T09:35:14.625Z,19.86
2019-05-01T09:36:02.327Z,19.86
2019-05-01T09:37:02.287Z,19.87
2019-05-01T09:38:02.384Z,19.94
2019-05-01T09:39:02.350Z,19.87
2019-05-01T09:40:04.322Z,19.92
2019-05-01T09:41:02.363Z,19.87
2019-05-01T09:42:02.437Z,19.97
2019-05-01T09:43:02.436Z,19.89
2019-05-01T09:44:05.836Z,19.94
2019-05-01T09:45:02.489Z,19.94
2019-05-01T09:46:02.563Z,19.98
2019-05-01T09:47:02.544Z,20.02
2019-05-01T09:48:02.579Z,20.10
2019-05-01T09:49:02.657Z,20.05
2019-05-01T09:50:02.651Z,20.02
2019-05-01T09:51:05.541Z,20.01
2019-05-01T09:52:02.757Z,20.07
2019-05-01T09:53:03.099Z,20.05
2019-05-01T09:54:05.754Z,20.04
2019-05-01T09:55:02.792Z,20.04
2019-05-01T09:56:03.266Z,20.04
2019-05-01T09:57:02.913Z,20.05
2019-05-01T09:58:03.039Z,20.01
2019-05-01T09:59:02.969Z,20.12
2019-05-01T10:00:03.015Z,20.00
2019-05-01T10:01:03.043Z,20.12
2019-05-01T10:02:07.701Z,20.15
2019-05-01T10:03:03.101Z,20.07
2019-05-01T10:04:05.538Z,20.12
2019-05-01T10:05:06.688Z,20.16
2019-05-01T10:06:03.194Z,20.13
2019-05-01T10:07:03.176Z,20.13
2019-05-01T10:08:04.158Z,20.13
2019-05-01T10:09:03.242Z,20.23
2019-05-01T10:10:03.322Z,20.19
2019-05-01T10:11:05.147Z,20.13
2019-05-01T10:12:03.390Z,20.20
2019-05-01T10:13:03.415Z,20.16
2019-05-01T10:14:04.224Z,20.17
2019-05-01T10:16:03.513Z,20.15
2019-05-01T10:17:03.800Z,20.16
2019-05-01T10:18:03.577Z,20.15
2019-05-01T10:19:03.577Z,20.12
2019-05-01T10:20:03.720Z,20.15
2019-05-01T10:21:03.665Z,20.10
2019-05-01T10:22:03.842Z,20.13
2019-05-01T10:23:07.885Z,20.19
2019-05-01T10:24:04.015Z,20.25
2019-05-01T10:25:03.798Z,20.23
2019-05-01T10:26:03.831Z,20.25
2019-05-01T10:27:03.862Z,20.19
2019-05-01T10:28:07.219Z,20.27
2019-05-01T10:29:03.930Z,20.17
2019-05-01T10:30:03.913Z,20.25
2019-05-01T10:31:06.985Z,20.22
2019-05-01T10:32:04.014Z,20.20
2019-05-01T10:33:04.058Z,20.22
2019-05-01T10:34:07.643Z,20.30
2019-05-01T10:35:04.064Z,20.33
2019-05-01T10:36:04.138Z,20.33
2019-05-01T10:37:04.470Z,20.27
2019-05-01T10:38:04.664Z,20.31
2019-05-01T10:39:04.192Z,20.34
2019-05-01T10:40:04.231Z,20.38
2019-05-01T10:41:08.987Z,20.41
2019-05-01T10:42:04.341Z,20.38
2019-05-01T10:43:04.677Z,20.40
2019-05-01T10:44:04.354Z,20.42
2019-05-01T10:45:04.439Z,20.42
2019-05-01T10:46:04.474Z,20.41
2019-05-01T10:47:04.445Z,20.46
2019-05-01T10:48:04.528Z,20.48
2019-05-01T10:49:04.863Z,20.40
2019-05-01T10:50:04.589Z,20.42
2019-05-01T10:51:04.620Z,20.60
2019-05-01T10:52:14.059Z,20.53
2019-05-01T10:53:04.629Z,20.60
2019-05-01T10:54:04.719Z,20.61
2019-05-01T10:55:05.054Z,20.60
2019-05-01T10:56:04.793Z,20.61
2019-05-01T10:57:04.832Z,20.63
2019-05-01T10:58:04.803Z,20.73
2019-05-01T10:59:04.835Z,20.71
2019-05-01T11:00:04.917Z,20.73
2019-05-01T11:01:04.939Z,20.71
2019-05-01T11:02:04.982Z,20.76
2019-05-01T11:03:04.950Z,20.79
2019-05-01T11:04:04.982Z,20.83
2019-05-01T11:05:05.017Z,20.87
2019-05-01T11:06:05.097Z,20.90
2019-05-01T11:07:05.138Z,20.90
2019-05-01T11:08:05.111Z,20.82
2019-05-01T11:09:05.294Z,20.88
2019-05-01T11:10:05.328Z,20.91
2019-05-01T11:11:05.265Z,20.79
2019-05-01T11:13:07.674Z,20.98
2019-05-01T11:14:05.658Z,20.94
2019-05-01T11:15:05.389Z,20.96
2019-05-01T11:16:05.372Z,20.98
2019-05-01T11:17:05.457Z,20.94
2019-05-01T11:18:05.495Z,20.97
2019-05-01T11:19:05.482Z,21.00
2019-05-01T11:20:05.863Z,20.96
2019-05-01T11:21:05.609Z,20.93
2019-05-01T11:22:05.637Z,20.98
2019-05-01T11:23:05.597Z,20.98
2019-05-01T11:24:05.710Z,21.03
2019-05-01T11:25:05.655Z,21.03
2019-05-01T11:26:05.694Z,21.08
2019-05-01T11:27:05.785Z,21.06
2019-05-01T11:28:05.810Z,21.06
2019-05-01T11:29:05.794Z,21.00
2019-05-01T11:30:05.941Z,21.01
2019-05-01T11:31:05.859Z,21.03
2019-05-01T11:32:05.891Z,21.11
2019-05-01T11:34:05.944Z,21.11
2019-05-01T11:35:06.034Z,21.13
2019-05-01T11:36:09.787Z,21.13
2019-05-01T11:37:06.118Z,21.15
2019-05-01T11:38:06.384Z,21.19
2019-05-01T11:39:06.115Z,21.15
2019-05-01T11:40:06.212Z,21.13
2019-05-01T11:41:06.225Z,21.15
2019-05-01T11:42:06.267Z,21.30
2019-05-01T11:43:06.308Z,21.30
2019-05-01T11:44:06.439Z,21.24
2019-05-01T11:45:06.655Z,21.21
2019-05-01T11:46:06.336Z,21.22
2019-05-01T11:47:06.424Z,21.31
2019-05-01T11:48:06.420Z,21.37
2019-05-01T11:49:06.484Z,21.28
2019-05-01T11:50:06.519Z,21.37
2019-05-01T11:51:06.504Z,21.31
2019-05-01T11:52:06.582Z,21.36
2019-05-01T11:53:06.619Z,21.36
2019-05-01T11:54:06.620Z,21.34
2019-05-01T11:55:06.693Z,21.36
2019-05-01T11:56:06.682Z,21.34
2019-05-01T11:58:07.113Z,21.48
2019-05-01T11:59:06.763Z,21.43
2019-05-01T12:00:06.945Z,21.42
2019-05-01T12:01:06.880Z,21.46
2019-05-01T12:02:06.866Z,21.48
2019-05-01T12:03:06.940Z,21.53
2019-05-01T12:04:06.977Z,21.49
2019-05-01T12:05:07.352Z,21.48
2019-05-01T12:06:07.002Z,21.46
2019-05-01T12:07:07.025Z,21.55
2019-05-01T12:08:07.103Z,21.61
2019-05-01T12:10:07.123Z,21.53
2019-05-01T12:11:07.211Z,21.52
2019-05-01T12:12:07.259Z,21.53
2019-05-01T12:13:07.272Z,21.59
2019-05-01T12:14:07.296Z,21.58
2019-05-01T12:15:07.330Z,21.59
2019-05-01T12:16:07.310Z,21.55
2019-05-01T12:17:07.696Z,21.58
2019-05-01T12:18:07.386Z,21.61
2019-05-01T12:19:07.458Z,21.61
2019-05-01T12:20:07.452Z,21.59
2019-05-01T12:21:07.544Z,21.63
2019-05-01T12:22:07.566Z,21.67
2019-05-01T12:23:07.604Z,21.73
2019-05-01T12:24:07.629Z,21.63
2019-05-01T12:25:07.675Z,21.71
2019-05-01T12:26:07.687Z,21.66
2019-05-01T12:27:07.732Z,21.75
2019-05-01T12:28:07.715Z,21.73
2019-05-01T12:29:08.097Z,21.66
2019-05-01T12:30:07.824Z,21.73
2019-05-01T12:31:07.871Z,21.71
2019-05-01T12:32:07.848Z,21.74
2019-05-01T12:33:07.924Z,21.70
2019-05-01T12:34:07.916Z,21.71
2019-05-01T12:35:07.989Z,21.73
2019-05-01T12:36:08.027Z,21.73
2019-05-01T12:37:08.057Z,21.68
2019-05-01T12:38:08.038Z,21.71
2019-05-01T12:39:08.068Z,21.75
2019-05-01T12:40:08.149Z,21.77
2019-05-01T12:41:08.227Z,21.81
2019-05-01T12:42:08.171Z,21.77
2019-05-01T12:43:08.200Z,21.82
2019-05-01T12:44:08.251Z,21.81
2019-05-01T12:45:08.270Z,21.77
2019-05-01T12:47:08.384Z,21.83
2019-05-01T12:48:08.678Z,21.74
2019-05-01T12:49:08.462Z,21.70
2019-05-01T12:50:08.451Z,21.89
2019-05-01T12:51:08.514Z,21.82
2019-05-01T12:52:10.749Z,21.82
2019-05-01T12:53:08.532Z,21.86
2019-05-01T12:54:08.614Z,21.82
2019-05-01T12:55:08.652Z,21.82
2019-05-01T12:56:08.696Z,21.90
2019-05-01T12:57:08.719Z,21.86
2019-05-01T12:58:08.754Z,21.86
2019-05-01T12:59:08.784Z,21.94
2019-05-01T13:00:09.366Z,21.85
2019-05-01T13:01:08.803Z,21.89
2019-05-01T13:02:08.892Z,21.82
2019-05-01T13:03:08.911Z,21.82
2019-05-01T13:04:08.959Z,21.93
2019-05-01T13:05:08.995Z,21.93
2019-05-01T13:06:09.322Z,21.85
2019-05-01T13:07:09.065Z,21.89
2019-05-01T13:08:09.212Z,21.89
2019-05-01T13:09:09.148Z,21.91
2019-05-01T13:10:09.149Z,21.85
2019-05-01T13:11:09.280Z,21.90
2019-05-01T13:12:09.172Z,21.91
2019-05-01T13:13:11.093Z,21.90
2019-05-01T13:14:09.586Z,21.96
2019-05-01T13:15:09.325Z,21.94
2019-05-01T13:16:09.298Z,21.94
2019-05-01T13:17:09.334Z,21.94
2019-05-01T13:18:09.359Z,21.91
2019-05-01T13:19:09.442Z,21.91
2019-05-01T13:20:09.731Z,21.91
2019-05-01T13:21:09.512Z,21.90
2019-05-01T13:22:09.541Z,21.96
2019-05-01T13:23:09.530Z,21.98
2019-05-01T13:24:09.611Z,21.98
2019-05-01T13:25:09.648Z,21.99
2019-05-01T13:26:09.715Z,21.99
2019-05-01T13:27:10.011Z,21.99
2019-05-01T13:28:09.746Z,22.02
2019-05-01T13:29:09.778Z,22.04
2019-05-01T13:30:09.826Z,22.08
2019-05-01T13:31:09.845Z,22.04
2019-05-01T13:32:09.826Z,22.09
2019-05-01T13:33:09.939Z,22.04